createdAt,value
2019-05-09T00:02:27.413Z,3.90
2019-05-09T00:04:56.332Z,3.80
2019-05-09T00:07:25.396Z,3.87
2019-05-09T00:09:54.158Z,3.80
2019-05-09T00:12:23.492Z,3.27
2019-05-09T00:14:53.940Z,3.60
2019-05-09T00:17:23.297Z,3.20
2019-05-09T00:19:54.151Z,3.23
2019-05-09T00:22:24.045Z,2.90
2019-05-09T00:24:53.958Z,3.30
2019-05-09T00:27:23.180Z,3.43
2019-05-09T00:29:53.160Z,2.80
2019-05-09T00:32:28.069Z,2.60
2019-05-09T00:35:05.668Z,2.63
2019-05-09T00:37:54.652Z,2.60
2019-05-09T00:40:24.347Z,2.63
2019-05-09T00:42:54.293Z,2.73
2019-05-09T00:45:41.065Z,3.03
2019-05-09T00:48:13.540Z,2.80
2019-05-09T00:50:43.730Z,2.87
2019-05-09T00:53:13.751Z,2.80
2019-05-09T00:55:43.662Z,2.63
2019-05-09T00:58:13.577Z,2.33
2019-05-09T01:00:43.988Z,2.33
2019-05-09T01:03:14.179Z,2.63
2019-05-09T01:05:43.760Z,1.93
2019-05-09T01:08:13.711Z,2.30
2019-05-09T01:10:43.621Z,2.27
2019-05-09T01:13:14.229Z,1.80
2019-05-09T01:15:44.093Z,2.10
2019-05-09T01:18:13.308Z,2.10
2019-05-09T01:20:44.071Z,1.73
2019-05-09T01:23:14.191Z,2.00
2019-05-09T01:25:43.681Z,1.87
2019-05-09T01:28:13.978Z,1.63
2019-05-09T01:30:43.969Z,2.20
2019-05-09T01:33:47.135Z,2.23
2019-05-09T01:36:15.971Z,2.13
2019-05-09T01:38:45.168Z,2.50
2019-05-09T01:41:27.169Z,2.50
2019-05-09T01:43:45.093Z,2.30
2019-05-09T01:46:14.563Z,3.20
2019-05-09T01:48:43.627Z,2.90
2019-05-09T01:51:13.937Z,2.83
2019-05-09T01:53:48.693Z,3.20
2019-05-09T01:56:17.465Z,3.40
2019-05-09T01:58:46.526Z,3.90
2019-05-09T02:01:15.356Z,3.30
2019-05-09T02:03:44.420Z,4.07
2019-05-09T02:06:13.760Z,3.23
2019-05-09T02:08:43.782Z,3.37
2019-05-09T02:11:13.389Z,3.60
2019-05-09T02:13:44.192Z,3.90
2019-05-09T02:16:47.166Z,3.57
2019-05-09T02:19:35.292Z,3.77
2019-05-09T02:22:07.447Z,3.40
2019-05-09T02:24:36.490Z,3.53
2019-05-09T02:27:05.551Z,3.37
2019-05-09T02:29:34.322Z,3.70
2019-05-09T02:32:04.576Z,3.63
2019-05-09T02:34:35.591Z,3.47
2019-05-09T02:37:04.306Z,3.50
2019-05-09T02:39:33.075Z,4.27
2019-05-09T02:42:09.467Z,3.77
2019-05-09T02:44:32.434Z,4.00
2019-05-09T02:47:08.969Z,4.30
2019-05-09T02:49:39.157Z,4.50
2019-05-09T02:52:08.906Z,4.27
2019-05-09T02:54:39.221Z,4.07
2019-05-09T02:57:09.315Z,4.30
2019-05-09T02:59:59.278Z,4.77
2019-05-09T03:02:48.701Z,3.93
2019-05-09T03:05:19.587Z,4.30
2019-05-09T03:07:52.224Z,4.20
2019-05-09T03:10:22.417Z,3.87
2019-05-09T03:12:51.843Z,3.50
2019-05-09T03:15:21.339Z,3.77
2019-05-09T03:17:50.643Z,4.23
2019-05-09T03:20:42.377Z,3.43
2019-05-09T03:23:11.127Z,3.70
2019-05-09T03:25:40.905Z,4.13
2019-05-09T03:28:18.374Z,3.73
2019-05-09T03:30:50.327Z,3.50
2019-05-09T03:33:20.109Z,4.00
2019-05-09T03:35:49.260Z,3.70
2019-05-09T03:38:18.050Z,3.60
2019-05-09T03:40:47.795Z,3.63
2019-05-09T03:43:18.395Z,3.73
2019-05-09T03:45:53.709Z,3.30
2019-05-09T03:48:31.436Z,3.53
2019-05-09T03:51:00.220Z,3.40
2019-05-09T03:53:29.279Z,3.50
2019-05-09T03:56:00.186Z,3.30
2019-05-09T03:58:29.311Z,3.60
2019-05-09T04:00:58.140Z,3.40
2019-05-09T04:03:27.630Z,3.57
2019-05-09T04:06:02.698Z,3.23
2019-05-09T04:08:28.254Z,3.37
2019-05-09T04:10:58.664Z,3.37
2019-05-09T04:13:33.106Z,3.70
2019-05-09T04:16:01.900Z,3.47
2019-05-09T04:18:30.667Z,3.23
2019-05-09T04:20:59.781Z,3.20
2019-05-09T04:23:28.810Z,3.07
2019-05-09T04:26:04.208Z,3.63
2019-05-09T04:28:32.975Z,3.40
2019-05-09T04:31:01.769Z,3.67
2019-05-09T04:33:30.551Z,3.60
2019-05-09T04:35:59.678Z,3.60
2019-05-09T04:38:28.878Z,3.27
2019-05-09T04:40:58.463Z,3.53
2019-05-09T04:43:35.498Z,2.67
2019-05-09T04:46:00.005Z,2.90
2019-05-09T04:48:32.615Z,2.60
2019-05-09T04:51:03.457Z,2.83
2019-05-09T04:53:33.059Z,2.20
2019-05-09T04:56:07.604Z,2.10
2019-05-09T04:58:37.616Z,2.30
2019-05-09T05:01:27.679Z,2.53
2019-05-09T05:03:57.400Z,2.43
2019-05-09T05:06:28.134Z,2.40
2019-05-09T05:08:58.596Z,2.87
2019-05-09T05:11:28.018Z,2.20
2019-05-09T05:13:58.675Z,2.50
2019-05-09T05:16:27.531Z,2.50
2019-05-09T05:18:58.435Z,2.67
2019-05-09T05:21:28.455Z,3.30
2019-05-09T05:24:21.190Z,2.70
2019-05-09T05:26:49.980Z,3.00
2019-05-09T05:29:18.958Z,3.10
2019-05-09T05:31:47.910Z,2.90
2019-05-09T05:34:31.591Z,2.80
2019-05-09T05:37:00.376Z,3.30
2019-05-09T05:39:29.146Z,2.43
2019-05-09T05:41:58.783Z,2.67
2019-05-09T05:44:28.285Z,3.20
2019-05-09T05:47:09.455Z,2.87
2019-05-09T05:49:38.566Z,2.90
2019-05-09T05:52:08.155Z,2.90
2019-05-09T05:54:37.909Z,2.90
2019-05-09T05:57:08.388Z,2.87
2019-05-09T05:59:40.806Z,3.10
2019-05-09T06:02:08.782Z,2.70
2019-05-09T06:04:38.218Z,2.57
2019-05-09T06:07:08.136Z,2.60
2019-05-09T06:09:37.946Z,3.10
2019-05-09T06:12:08.193Z,3.27
2019-05-09T06:14:37.944Z,2.53
2019-05-09T06:17:07.873Z,2.40
2019-05-09T06:19:37.874Z,2.60
2019-05-09T06:22:08.265Z,2.37
2019-05-09T06:24:38.793Z,2.50
2019-05-09T06:27:10.475Z,2.20
2019-05-09T06:29:39.205Z,2.70
2019-05-09T06:32:08.155Z,2.47
2019-05-09T06:34:41.300Z,2.37
2019-05-09T06:37:08.856Z,2.40
2019-05-09T06:39:38.503Z,2.47
2019-05-09T06:42:09.073Z,2.37
2019-05-09T06:44:58.407Z,2.30
2019-05-09T06:47:33.870Z,2.00
2019-05-09T06:50:07.965Z,2.40
2019-05-09T06:52:37.628Z,2.30
2019-05-09T06:55:08.664Z,2.23
2019-05-09T06:57:42.114Z,2.00
2019-05-09T07:00:17.811Z,2.07
2019-05-09T07:03:08.860Z,2.40
2019-05-09T07:06:04.879Z,1.80
2019-05-09T07:08:42.784Z,1.97
2019-05-09T07:11:11.868Z,2.20
2019-05-09T07:13:40.959Z,2.20
2019-05-09T07:16:10.366Z,1.70
2019-05-09T07:18:39.409Z,1.80
2019-05-09T07:21:08.561Z,1.90
2019-05-09T07:23:37.465Z,1.60
2019-05-09T07:26:10.642Z,1.80
2019-05-09T07:28:39.903Z,2.10
2019-05-09T07:31:28.374Z,1.70
2019-05-09T07:34:19.588Z,1.60
2019-05-09T07:36:48.364Z,2.10
2019-05-09T07:39:17.692Z,1.90
2019-05-09T07:41:47.771Z,2.03
2019-05-09T07:44:18.208Z,1.90
2019-05-09T07:46:59.114Z,1.93
2019-05-09T07:49:29.424Z,1.80
2019-05-09T07:52:00.403Z,1.93
2019-05-09T07:54:29.569Z,1.83
2019-05-09T07:56:58.427Z,1.87
2019-05-09T07:59:27.551Z,1.90
2019-05-09T08:01:58.101Z,2.10
2019-05-09T08:04:28.609Z,2.13
2019-05-09T08:06:57.886Z,1.50
2019-05-09T08:09:28.073Z,1.60
2019-05-09T08:11:58.700Z,2.03
2019-05-09T08:14:28.201Z,1.87
2019-05-09T08:16:58.016Z,1.50
2019-05-09T08:19:27.531Z,2.03
2019-05-09T08:21:57.595Z,1.80
2019-05-09T08:24:27.723Z,1.93
2019-05-09T08:26:58.050Z,1.73
2019-05-09T08:29:28.186Z,2.10
2019-05-09T08:31:58.216Z,1.70
2019-05-09T08:34:28.500Z,1.60
2019-05-09T08:36:58.250Z,1.70
2019-05-09T08:39:27.883Z,1.70
2019-05-09T08:41:59.323Z,1.70
2019-05-09T08:44:30.439Z,1.43
2019-05-09T08:46:58.529Z,1.30
2019-05-09T08:49:37.313Z,1.60
2019-05-09T08:52:15.831Z,1.53
2019-05-09T08:54:41.506Z,1.47
2019-05-09T08:57:10.452Z,1.30
2019-05-09T08:59:39.212Z,1.60
2019-05-09T09:02:14.788Z,1.50
2019-05-09T09:04:39.100Z,1.40
2019-05-09T09:07:08.520Z,1.60
2019-05-09T09:09:37.976Z,1.60
2019-05-09T09:12:25.184Z,1.70
2019-05-09T09:14:38.606Z,1.40
2019-05-09T09:17:07.962Z,1.97
2019-05-09T09:19:38.535Z,1.20
2019-05-09T09:22:08.843Z,1.87
2019-05-09T09:24:38.279Z,1.53
2019-05-09T09:27:07.939Z,1.20
2019-05-09T09:29:38.069Z,1.37
2019-05-09T09:32:08.315Z,1.57
2019-05-09T09:34:38.137Z,1.30
2019-05-09T09:37:11.359Z,1.20
2019-05-09T09:39:44.521Z,1.20
2019-05-09T09:42:09.176Z,1.60
2019-05-09T09:44:39.315Z,1.43
2019-05-09T09:47:08.537Z,1.23
2019-05-09T09:49:38.397Z,1.10
2019-05-09T09:52:08.715Z,1.20
2019-05-09T09:54:38.724Z,1.10
2019-05-09T09:57:09.642Z,1.20
2019-05-09T09:59:48.127Z,1.90
2019-05-09T10:02:17.335Z,1.13
2019-05-09T10:04:46.104Z,1.10
2019-05-09T10:07:14.967Z,1.23
2019-05-09T10:09:43.720Z,1.40
2019-05-09T10:12:12.897Z,1.37
2019-05-09T10:14:45.870Z,1.20
2019-05-09T10:17:39.484Z,1.10
2019-05-09T10:20:14.320Z,1.10
2019-05-09T10:22:46.213Z,1.10
2019-05-09T10:25:14.123Z,1.27
2019-05-09T10:27:43.707Z,1.20
2019-05-09T10:30:13.016Z,1.10
2019-05-09T10:32:42.212Z,1.50
2019-05-09T10:35:17.717Z,1.40
2019-05-09T10:37:48.486Z,1.33
2019-05-09T10:40:23.073Z,1.40
2019-05-09T10:42:58.692Z,1.30
2019-05-09T10:45:48.310Z,1.20
2019-05-09T10:48:23.805Z,1.37
2019-05-09T10:50:54.110Z,1.20
2019-05-09T10:53:19.316Z,1.23
2019-05-09T10:55:48.340Z,1.20
2019-05-09T10:58:20.255Z,1.33
2019-05-09T11:00:48.555Z,1.40
2019-05-09T11:03:18.147Z,1.50
2019-05-09T11:05:47.388Z,1.27
2019-05-09T11:08:18.495Z,1.30
2019-05-09T11:10:47.536Z,1.47
2019-05-09T11:13:18.202Z,1.10
2019-05-09T11:15:47.980Z,1.30
2019-05-09T11:18:18.499Z,1.40
2019-05-09T11:20:47.897Z,1.30
2019-05-09T11:23:19.324Z,1.50
2019-05-09T11:25:49.280Z,1.23
2019-05-09T11:28:18.421Z,1.27
2019-05-09T11:30:47.766Z,1.40
2019-05-09T11:33:18.299Z,1.30
2019-05-09T11:35:47.949Z,1.53
2019-05-09T11:38:29.326Z,1.53
2019-05-09T11:40:48.599Z,1.37
2019-05-09T11:43:18.106Z,1.20
2019-05-09T11:45:47.945Z,1.33
2019-05-09T11:48:18.689Z,1.20
2019-05-09T11:50:47.840Z,1.37
2019-05-09T11:53:17.648Z,1.80
2019-05-09T11:55:48.330Z,1.37
2019-05-09T11:58:18.129Z,1.37
2019-05-09T12:00:48.338Z,1.40
2019-05-09T12:03:18.935Z,1.10
2019-05-09T12:05:48.405Z,1.60
2019-05-09T12:08:17.786Z,1.23
2019-05-09T12:10:47.014Z,1.43
2019-05-09T12:13:18.541Z,1.37
2019-05-09T12:15:48.908Z,1.30
2019-05-09T12:18:17.471Z,1.30
2019-05-09T12:20:48.375Z,1.50
2019-05-09T12:23:19.870Z,1.60
2019-05-09T12:25:48.973Z,1.20
2019-05-09T12:28:18.964Z,1.70
2019-05-09T12:30:48.946Z,1.40
2019-05-09T12:33:18.771Z,1.47
2019-05-09T12:35:48.107Z,1.27
2019-05-09T12:38:18.108Z,1.33
2019-05-09T12:40:48.221Z,1.30
2019-05-09T12:43:18.547Z,1.43
2019-05-09T12:45:48.093Z,1.30
2019-05-09T12:48:19.525Z,1.20
2019-05-09T12:50:48.960Z,1.23
2019-05-09T12:53:18.935Z,1.00
2019-05-09T12:55:49.909Z,1.43
2019-05-09T12:58:28.000Z,1.83
2019-05-09T13:00:58.610Z,1.23
2019-05-09T13:03:29.016Z,1.40
2019-05-09T13:05:58.386Z,1.40
2019-05-09T13:08:27.835Z,1.20
2019-05-09T13:10:58.316Z,1.60
2019-05-09T13:13:31.650Z,1.57
2019-05-09T13:16:38.951Z,1.03
2019-05-09T13:19:06.316Z,1.10
2019-05-09T13:21:36.124Z,1.30
2019-05-09T13:24:08.393Z,1.33
2019-05-09T13:26:38.462Z,1.60
2019-05-09T13:29:08.194Z,1.37
2019-05-09T13:31:39.489Z,1.20
2019-05-09T13:34:08.487Z,1.00
2019-05-09T13:36:37.295Z,0.87
2019-05-09T13:39:08.805Z,1.13
2019-05-09T13:41:38.766Z,1.27
2019-05-09T13:44:13.304Z,1.23
2019-05-09T13:46:38.820Z,1.27
2019-05-09T13:49:12.464Z,1.23
2019-05-09T13:51:48.460Z,1.47
2019-05-09T13:54:09.312Z,1.13
2019-05-09T13:56:38.105Z,1.20
2019-05-09T13:59:08.380Z,1.50
2019-05-09T14:01:37.801Z,1.10
2019-05-09T14:04:07.909Z,1.33
2019-05-09T14:06:38.808Z,1.30
2019-05-09T14:09:10.355Z,1.30
2019-05-09T14:11:39.331Z,1.30
2019-05-09T14:14:08.529Z,1.40
2019-05-09T14:16:38.830Z,1.40
2019-05-09T14:19:29.764Z,1.07
2019-05-09T14:21:38.962Z,1.40
2019-05-09T14:24:14.460Z,1.27
2019-05-09T14:26:38.324Z,1.43
2019-05-09T14:29:07.188Z,1.30
2019-05-09T14:31:38.646Z,1.30
2019-05-09T14:34:08.751Z,1.33
2019-05-09T14:36:39.250Z,1.30
2019-05-09T14:39:09.414Z,1.20
2019-05-09T14:41:39.014Z,1.00
2019-05-09T14:44:09.302Z,1.20
2019-05-09T14:46:39.217Z,1.30
2019-05-09T14:49:08.872Z,1.20
2019-05-09T14:51:38.162Z,1.20
2019-05-09T14:54:08.371Z,1.30
2019-05-09T14:56:41.716Z,1.13
2019-05-09T14:59:09.808Z,1.40
2019-05-09T15:01:39.946Z,1.37
2019-05-09T15:04:09.250Z,1.33
2019-05-09T15:06:38.041Z,1.47
2019-05-09T15:09:08.601Z,1.30
2019-05-09T15:11:39.479Z,1.10
2019-05-09T15:14:08.584Z,1.20
2019-05-09T15:16:39.262Z,1.10
2019-05-09T15:19:08.665Z,1.10
2019-05-09T15:21:38.426Z,1.20
2019-05-09T15:24:09.131Z,1.23
2019-05-09T15:26:38.131Z,1.07
2019-05-09T15:29:08.072Z,1.20
2019-05-09T15:31:39.094Z,1.03
2019-05-09T15:34:09.555Z,1.00
2019-05-09T15:36:38.661Z,1.10
2019-05-09T15:39:08.304Z,0.80
2019-05-09T15:41:38.391Z,0.90
2019-05-09T15:44:08.673Z,0.80
2019-05-09T15:46:48.368Z,1.00
2019-05-09T15:49:18.326Z,0.90
2019-05-09T15:51:47.892Z,1.10
2019-05-09T15:54:17.826Z,1.30
2019-05-09T15:56:48.331Z,1.10
2019-05-09T15:59:18.432Z,0.97
2019-05-09T16:01:49.106Z,1.07
2019-05-09T16:04:18.292Z,1.30
2019-05-09T16:06:50.292Z,0.90
2019-05-09T16:09:18.125Z,1.13
2019-05-09T16:11:48.418Z,1.03
2019-05-09T16:14:18.458Z,0.90
2019-05-09T16:16:48.079Z,0.90
2019-05-09T16:19:16.992Z,0.70
2019-05-09T16:21:47.727Z,0.90
2019-05-09T16:24:18.659Z,0.97
2019-05-09T16:26:48.745Z,0.90
2019-05-09T16:29:18.158Z,0.70
2019-05-09T16:31:48.068Z,0.70
2019-05-09T16:34:17.870Z,0.80
2019-05-09T16:36:48.026Z,0.90
2019-05-09T16:39:18.075Z,1.30
2019-05-09T16:41:48.280Z,2.30
2019-05-09T16:44:18.247Z,1.17
2019-05-09T16:46:48.487Z,1.20
2019-05-09T16:49:20.000Z,0.90
2019-05-09T16:51:49.019Z,1.03
2019-05-09T16:54:18.244Z,0.80
2019-05-09T16:56:47.484Z,0.93
2019-05-09T16:59:17.841Z,2.20
2019-05-09T17:01:50.070Z,1.00
2019-05-09T17:04:19.252Z,1.10
2019-05-09T17:06:49.689Z,1.90
2019-05-09T17:09:19.122Z,0.90
2019-05-09T17:11:48.169Z,0.80
2019-05-09T17:14:19.324Z,1.03
2019-05-09T17:16:48.379Z,1.10
2019-05-09T17:19:19.464Z,1.10
2019-05-09T17:22:07.961Z,0.90
2019-05-09T17:24:38.469Z,0.70
2019-05-09T17:27:08.680Z,1.10
2019-05-09T17:29:38.270Z,0.80
2019-05-09T17:32:07.825Z,0.70
2019-05-09T17:34:38.150Z,0.80
2019-05-09T17:37:08.044Z,0.90
2019-05-09T17:39:38.687Z,1.00
2019-05-09T17:42:07.973Z,0.70
2019-05-09T17:44:36.896Z,0.63
2019-05-09T17:47:08.292Z,0.80
2019-05-09T17:49:37.575Z,0.90
2019-05-09T17:52:07.699Z,0.97
2019-05-09T17:54:37.937Z,0.90
2019-05-09T17:57:08.187Z,0.70
2019-05-09T17:59:39.274Z,1.00
2019-05-09T18:02:08.691Z,0.80
2019-05-09T18:04:37.965Z,0.90
2019-05-09T18:07:08.727Z,0.93
2019-05-09T18:09:38.183Z,0.90
2019-05-09T18:12:08.318Z,1.17
2019-05-09T18:14:38.308Z,1.30
2019-05-09T18:17:07.317Z,0.80
2019-05-09T18:19:38.099Z,0.90
2019-05-09T18:22:08.201Z,0.90
2019-05-09T18:24:37.751Z,0.70
2019-05-09T18:27:07.709Z,0.93
2019-05-09T18:29:38.073Z,0.90
2019-05-09T18:32:17.660Z,0.90
2019-05-09T18:34:48.620Z,0.70
2019-05-09T18:37:18.376Z,0.90
2019-05-09T18:39:48.427Z,0.87
2019-05-09T18:42:18.013Z,0.90
2019-05-09T18:44:47.615Z,0.90
2019-05-09T18:47:18.495Z,0.80
2019-05-09T18:49:47.507Z,0.90
2019-05-09T18:52:16.504Z,0.60
2019-05-09T18:54:45.284Z,0.90
2019-05-09T18:57:14.699Z,0.70
2019-05-09T18:59:43.586Z,1.00
2019-05-09T19:02:12.703Z,0.80
2019-05-09T19:04:41.901Z,0.63
2019-05-09T19:07:21.739Z,0.63
2019-05-09T19:09:41.223Z,0.70
2019-05-09T19:12:10.189Z,0.80
2019-05-09T19:14:39.088Z,0.73
2019-05-09T19:17:30.236Z,0.97
2019-05-09T19:20:15.927Z,0.90
2019-05-09T19:22:45.433Z,1.10
2019-05-09T19:25:14.602Z,0.80
2019-05-09T19:27:43.486Z,1.10
2019-05-09T19:30:12.751Z,1.30
2019-05-09T19:32:41.523Z,1.27
2019-05-09T19:35:10.292Z,0.90
2019-05-09T19:37:39.059Z,0.90
2019-05-09T19:40:09.918Z,0.90
2019-05-09T19:42:38.723Z,0.87
2019-05-09T19:45:08.245Z,0.93
2019-05-09T19:47:37.029Z,0.83
2019-05-09T19:50:06.206Z,0.90
2019-05-09T19:52:38.490Z,1.13
2019-05-09T19:55:05.891Z,1.03
2019-05-09T19:57:34.661Z,1.00
2019-05-09T20:00:03.636Z,1.00
2019-05-09T20:02:32.407Z,1.00
2019-05-09T20:05:01.979Z,0.97
2019-05-09T20:07:30.752Z,1.20
2019-05-09T20:10:18.603Z,0.97
2019-05-09T20:13:06.530Z,1.00
2019-05-09T20:15:35.286Z,0.80
2019-05-09T20:18:04.451Z,0.87
2019-05-09T20:20:33.210Z,0.80
2019-05-09T20:23:02.008Z,0.90
2019-05-09T20:25:30.890Z,0.90
2019-05-09T20:27:59.799Z,0.87
2019-05-09T20:30:28.876Z,0.80
2019-05-09T20:32:57.992Z,0.80
2019-05-09T20:35:26.844Z,0.90
2019-05-09T20:37:55.788Z,0.90
2019-05-09T20:40:25.013Z,0.97
2019-05-09T20:42:54.239Z,0.87
2019-05-09T20:45:24.306Z,0.80
2019-05-09T20:47:53.264Z,0.90
2019-05-09T20:50:22.296Z,0.90
2019-05-09T20:52:51.643Z,1.00
2019-05-09T20:55:20.949Z,1.10
2019-05-09T20:57:52.099Z,0.83
2019-05-09T21:00:21.154Z,0.97
2019-05-09T21:02:50.112Z,0.73
2019-05-09T21:05:19.060Z,0.90
2019-05-09T21:07:48.255Z,1.10
2019-05-09T21:10:17.465Z,1.00
2019-05-09T21:12:46.421Z,0.87
2019-05-09T21:15:15.605Z,0.90
2019-05-09T21:17:44.556Z,0.97
2019-05-09T21:20:13.924Z,0.90
2019-05-09T21:22:43.261Z,1.10
2019-05-09T21:25:12.423Z,0.90
2019-05-09T21:27:41.382Z,0.93
2019-05-09T21:30:10.708Z,1.07
2019-05-09T21:32:40.063Z,0.87
2019-05-09T21:35:08.982Z,0.90
2019-05-09T21:37:37.761Z,1.07
2019-05-09T21:40:08.047Z,1.00
2019-05-09T21:42:36.847Z,1.00
2019-05-09T21:45:05.775Z,1.17
2019-05-09T21:47:34.535Z,1.10
2019-05-09T21:50:03.394Z,0.90
2019-05-09T21:52:32.800Z,1.10
2019-05-09T21:55:01.827Z,1.13
2019-05-09T21:57:30.665Z,0.90
2019-05-09T21:59:59.432Z,1.10
2019-05-09T22:02:28.459Z,1.10
2019-05-09T22:04:57.378Z,1.00
2019-05-09T22:07:28.626Z,0.90
2019-05-09T22:09:57.491Z,1.30
2019-05-09T22:12:26.399Z,1.10
2019-05-09T22:14:55.186Z,0.80
2019-05-09T22:17:34.111Z,1.00
2019-05-09T22:20:03.399Z,1.17
2019-05-09T22:22:32.186Z,1.13
2019-05-09T22:25:01.009Z,1.20
2019-05-09T22:27:29.770Z,1.03
2019-05-09T22:29:58.539Z,0.80
2019-05-09T22:32:27.294Z,1.30
2019-05-09T22:34:56.103Z,1.30
2019-05-09T22:37:25.152Z,1.30
2019-05-09T22:39:53.925Z,1.00
2019-05-09T22:42:22.696Z,1.10
2019-05-09T22:44:51.469Z,1.00
2019-05-09T22:47:20.304Z,1.20
2019-05-09T22:49:52.595Z,0.97
2019-05-09T22:52:19.860Z,1.20
2019-05-09T22:54:48.636Z,1.27
2019-05-09T22:57:17.488Z,1.00
2019-05-09T22:59:46.703Z,1.10
2019-05-09T23:02:15.541Z,1.10
2019-05-09T23:04:44.371Z,1.30
2019-05-09T23:07:13.396Z,1.17
2019-05-09T23:09:42.230Z,1.20
2019-05-09T23:12:11.051Z,1.30
2019-05-09T23:14:39.933Z,1.40
2019-05-09T23:17:09.560Z,1.30
2019-05-09T23:19:38.335Z,1.27
2019-05-09T23:22:07.783Z,1.47
2019-05-09T23:24:37.371Z,1.17
2019-05-09T23:27:08.538Z,1.13
2019-05-09T23:29:37.319Z,1.17
2019-05-09T23:32:22.284Z,1.00
2019-05-09T23:34:51.060Z,1.13
2019-05-09T23:37:19.810Z,1.40
2019-05-09T23:39:48.949Z,1.30
2019-05-09T23:42:17.705Z,1.30
2019-05-09T23:44:46.866Z,1.40
2019-05-09T23:47:15.968Z,1.10
2019-05-09T23:49:44.744Z,1.47
2019-05-09T23:52:13.499Z,1.40
2019-05-09T23:55:00.345Z,1.33
2019-05-09T23:57:46.943Z,1.33
